sensor_id;sensor_type;location;lat;lon;timestamp;temperature;humidity
7518;DHT22;3800;48.922;9.444;2022-08-03T00:01:16;18.20;99.90
7518;DHT22;3800;48.922;9.444;2022-08-03T00:03:45;18.20;99.90
7518;DHT22;3800;48.922;9.444;2022-08-03T00:06:14;18.20;99.90
7518;DHT22;3800;48.922;9.444;2022-08-03T00:08:42;18.20;99.90
7518;DHT22;3800;48.922;9.444;2022-08-03T00:11:10;18.10;99.90
7518;DHT22;3800;48.922;9.444;2022-08-03T00:13:38;18.20;99.90
7518;DHT22;3800;48.922;9.444;2022-08-03T00:16:07;18.20;99.90
7518;DHT22;3800;48.922;9.444;2022-08-03T00:18:35;18.20;99.90
7518;DHT22;3800;48.922;9.444;2022-08-03T00:21:03;18.20;99.90
7518;DHT22;3800;48.922;9.444;2022-08-03T00:23:32;18.20;99.90
7518;DHT22;3800;48.922;9.444;2022-08-03T00:26:01;18.20;99.90
7518;DHT22;3800;48.922;9.444;2022-08-03T00:28:29;18.20;99.90
7518;DHT22;3800;48.922;9.444;2022-08-03T00:30:58;18.20;99.90
7518;DHT22;3800;48.922;9.444;2022-08-03T00:33:26;18.20;99.90
7518;DHT22;3800;48.922;9.444;2022-08-03T00:35:54;18.10;99.90
7518;DHT22;3800;48.922;9.444;2022-08-03T00:38:23;18.20;99.90
7518;DHT22;3800;48.922;9.444;2022-08-03T00:40:52;18.20;99.90
7518;DHT22;3800;48.922;9.444;2022-08-03T00:43:23;18.10;99.90
7518;DHT22;3800;48.922;9.444;2022-08-03T00:45:49;18.10;99.90
7518;DHT22;3800;48.922;9.444;2022-08-03T00:48:17;18.10;99.90
7518;DHT22;3800;48.922;9.444;2022-08-03T00:50:45;18.00;99.90
7518;DHT22;3800;48.922;9.444;2022-08-03T00:53:14;18.00;99.90
7518;DHT22;3800;48.922;9.444;2022-08-03T00:55:42;18.00;99.90
7518;DHT22;3800;48.922;9.444;2022-08-03T00:58:10;18.00;99.90
7518;DHT22;3800;48.922;9.444;2022-08-03T01:00:39;17.90;99.90
7518;DHT22;3800;48.922;9.444;2022-08-03T01:03:07;17.90;99.90
7518;DHT22;3800;48.922;9.444;2022-08-03T01:09:52;17.80;99.90
7518;DHT22;3800;48.922;9.444;2022-08-03T01:11:37;17.70;99.90
7518;DHT22;3800;48.922;9.444;2022-08-03T01:14:23;17.70;99.90
7518;DHT22;3800;48.922;9.444;2022-08-03T01:16:56;17.60;99.90
7518;DHT22;3800;48.922;9.444;2022-08-03T01:19:44;17.60;99.90
7518;DHT22;3800;48.922;9.444;2022-08-03T01:22:34;17.60;99.90
7518;DHT22;3800;48.922;9.444;2022-08-03T01:25:06;17.50;99.90
7518;DHT22;3800;48.922;9.444;2022-08-03T01:27:45;17.40;99.90
7518;DHT22;3800;48.922;9.444;2022-08-03T01:30:11;17.40;99.90
7518;DHT22;3800;48.922;9.444;2022-08-03T01:32:51;17.30;99.90
7518;DHT22;3800;48.922;9.444;2022-08-03T01:35:17;17.30;99.90
7518;DHT22;3800;48.922;9.444;2022-08-03T01:37:49;17.40;99.90
7518;DHT22;3800;48.922;9.444;2022-08-03T01:40:16;17.40;99.90
7518;DHT22;3800;48.922;9.444;2022-08-03T01:42:44;17.40;99.90
7518;DHT22;3800;48.922;9.444;2022-08-03T01:45:13;17.40;99.90
7518;DHT22;3800;48.922;9.444;2022-08-03T01:47:42;17.30;99.90
7518;DHT22;3800;48.922;9.444;2022-08-03T01:50:10;17.30;99.90
7518;DHT22;3800;48.922;9.444;2022-08-03T01:52:39;17.30;99.90
7518;DHT22;3800;48.922;9.444;2022-08-03T01:55:07;17.30;99.90
7518;DHT22;3800;48.922;9.444;2022-08-03T01:57:37;17.30;99.90
7518;DHT22;3800;48.922;9.444;2022-08-03T02:00:05;17.20;99.90
7518;DHT22;3800;48.922;9.444;2022-08-03T02:02:36;17.20;99.90
7518;DHT22;3800;48.922;9.444;2022-08-03T02:05:05;17.10;99.90
7518;DHT22;3800;48.922;9.444;2022-08-03T02:07:33;17.00;99.90
7518;DHT22;3800;48.922;9.444;2022-08-03T02:10:02;16.90;99.90
7518;DHT22;3800;48.922;9.444;2022-08-03T02:12:30;16.80;99.90
7518;DHT22;3800;48.922;9.444;2022-08-03T02:14:59;16.80;99.90
7518;DHT22;3800;48.922;9.444;2022-08-03T02:17:28;16.70;99.90
7518;DHT22;3800;48.922;9.444;2022-08-03T02:19:56;16.70;99.90
7518;DHT22;3800;48.922;9.444;2022-08-03T02:22:25;16.70;99.90
7518;DHT22;3800;48.922;9.444;2022-08-03T02:24:53;16.70;99.90
7518;DHT22;3800;48.922;9.444;2022-08-03T02:27:22;16.70;99.90
7518;DHT22;3800;48.922;9.444;2022-08-03T02:29:52;16.70;99.90
7518;DHT22;3800;48.922;9.444;2022-08-03T02:32:23;16.80;99.90
7518;DHT22;3800;48.922;9.444;2022-08-03T02:34:52;16.70;99.90
7518;DHT22;3800;48.922;9.444;2022-08-03T02:37:19;16.80;99.90
7518;DHT22;3800;48.922;9.444;2022-08-03T02:39:48;16.80;99.90
7518;DHT22;3800;48.922;9.444;2022-08-03T02:42:16;16.80;99.90
7518;DHT22;3800;48.922;9.444;2022-08-03T02:44:44;16.70;99.90
7518;DHT22;3800;48.922;9.444;2022-08-03T02:47:13;16.60;99.90
7518;DHT22;3800;48.922;9.444;2022-08-03T02:49:41;16.60;99.90
7518;DHT22;3800;48.922;9.444;2022-08-03T02:52:09;16.50;99.90
7518;DHT22;3800;48.922;9.444;2022-08-03T02:54:38;16.50;99.90
7518;DHT22;3800;48.922;9.444;2022-08-03T02:57:06;16.40;99.90
7518;DHT22;3800;48.922;9.444;2022-08-03T02:59:34;16.40;99.90
7518;DHT22;3800;48.922;9.444;2022-08-03T03:02:03;16.30;99.90
7518;DHT22;3800;48.922;9.444;2022-08-03T03:04:31;16.40;99.90
7518;DHT22;3800;48.922;9.444;2022-08-03T03:06:59;16.40;99.90
7518;DHT22;3800;48.922;9.444;2022-08-03T03:09:27;16.40;99.90
7518;DHT22;3800;48.922;9.444;2022-08-03T03:11:56;16.40;99.90
7518;DHT22;3800;48.922;9.444;2022-08-03T03:14:25;16.50;99.90
7518;DHT22;3800;48.922;9.444;2022-08-03T03:16:54;16.50;99.90
7518;DHT22;3800;48.922;9.444;2022-08-03T03:19:22;16.50;99.90
7518;DHT22;3800;48.922;9.444;2022-08-03T03:21:52;16.60;99.90
7518;DHT22;3800;48.922;9.444;2022-08-03T03:24:20;16.50;99.90
7518;DHT22;3800;48.922;9.444;2022-08-03T03:26:49;16.40;99.90
7518;DHT22;3800;48.922;9.444;2022-08-03T03:29:17;16.30;99.90
7518;DHT22;3800;48.922;9.444;2022-08-03T03:31:46;16.20;99.90
7518;DHT22;3800;48.922;9.444;2022-08-03T03:34:14;16.10;99.90
7518;DHT22;3800;48.922;9.444;2022-08-03T03:36:42;16.10;99.90
7518;DHT22;3800;48.922;9.444;2022-08-03T03:39:11;16.10;99.90
7518;DHT22;3800;48.922;9.444;2022-08-03T03:41:40;16.20;99.90
7518;DHT22;3800;48.922;9.444;2022-08-03T03:44:08;16.10;99.90
7518;DHT22;3800;48.922;9.444;2022-08-03T03:46:37;16.20;99.90
7518;DHT22;3800;48.922;9.444;2022-08-03T03:49:05;16.10;99.90
7518;DHT22;3800;48.922;9.444;2022-08-03T03:51:33;16.10;99.90
7518;DHT22;3800;48.922;9.444;2022-08-03T03:54:02;16.10;99.90
7518;DHT22;3800;48.922;9.444;2022-08-03T03:56:30;16.10;99.90
7518;DHT22;3800;48.922;9.444;2022-08-03T03:58:58;16.10;99.90
7518;DHT22;3800;48.922;9.444;2022-08-03T04:01:26;16.10;99.90
7518;DHT22;3800;48.922;9.444;2022-08-03T04:03:54;16.10;99.90
7518;DHT22;3800;48.922;9.444;2022-08-03T04:06:23;16.10;99.90
7518;DHT22;3800;48.922;9.444;2022-08-03T04:08:57;16.10;99.90
7518;DHT22;3800;48.922;9.444;2022-08-03T04:11:27;16.00;99.90
7518;DHT22;3800;48.922;9.444;2022-08-03T04:13:56;16.10;99.90
7518;DHT22;3800;48.922;9.444;2022-08-03T04:16:40;16.10;99.90
7518;DHT22;3800;48.922;9.444;2022-08-03T04:19:08;16.10;99.90
7518;DHT22;3800;48.922;9.444;2022-08-03T04:21:46;16.10;99.90
7518;DHT22;3800;48.922;9.444;2022-08-03T04:24:13;16.10;99.90
7518;DHT22;3800;48.922;9.444;2022-08-03T04:26:42;16.10;99.90
7518;DHT22;3800;48.922;9.444;2022-08-03T04:29:10;16.10;99.90
7518;DHT22;3800;48.922;9.444;2022-08-03T04:31:39;16.10;99.90
7518;DHT22;3800;48.922;9.444;2022-08-03T04:34:07;16.10;99.90
7518;DHT22;3800;48.922;9.444;2022-08-03T04:36:37;16.10;99.90
7518;DHT22;3800;48.922;9.444;2022-08-03T04:39:06;16.20;99.90
7518;DHT22;3800;48.922;9.444;2022-08-03T04:41:34;16.10;99.90
7518;DHT22;3800;48.922;9.444;2022-08-03T04:44:03;16.10;99.90
7518;DHT22;3800;48.922;9.444;2022-08-03T04:46:32;16.00;99.90
7518;DHT22;3800;48.922;9.444;2022-08-03T04:49:00;16.00;99.90
7518;DHT22;3800;48.922;9.444;2022-08-03T04:51:28;16.10;99.90
7518;DHT22;3800;48.922;9.444;2022-08-03T04:53:57;16.10;99.90
7518;DHT22;3800;48.922;9.444;2022-08-03T04:56:25;16.20;99.90
7518;DHT22;3800;48.922;9.444;2022-08-03T04:58:54;16.30;99.90
7518;DHT22;3800;48.922;9.444;2022-08-03T05:01:22;16.30;99.90
7518;DHT22;3800;48.922;9.444;2022-08-03T05:03:50;16.40;99.90
7518;DHT22;3800;48.922;9.444;2022-08-03T05:06:19;16.50;99.90
7518;DHT22;3800;48.922;9.444;2022-08-03T05:08:47;16.50;99.90
7518;DHT22;3800;48.922;9.444;2022-08-03T05:11:16;16.60;99.90
7518;DHT22;3800;48.922;9.444;2022-08-03T05:13:45;16.70;99.90
7518;DHT22;3800;48.922;9.444;2022-08-03T05:16:13;16.70;99.90
7518;DHT22;3800;48.922;9.444;2022-08-03T05:18:42;16.80;99.90
7518;DHT22;3800;48.922;9.444;2022-08-03T05:21:11;16.90;99.90
7518;DHT22;3800;48.922;9.444;2022-08-03T05:23:39;16.90;99.90
7518;DHT22;3800;48.922;9.444;2022-08-03T05:26:07;17.00;99.90
7518;DHT22;3800;48.922;9.444;2022-08-03T05:28:35;17.10;99.90
7518;DHT22;3800;48.922;9.444;2022-08-03T05:31:05;17.10;99.90
7518;DHT22;3800;48.922;9.444;2022-08-03T05:33:33;17.20;99.90
7518;DHT22;3800;48.922;9.444;2022-08-03T05:36:03;17.30;99.90
7518;DHT22;3800;48.922;9.444;2022-08-03T05:38:31;17.40;99.90
7518;DHT22;3800;48.922;9.444;2022-08-03T05:41:00;17.40;99.90
7518;DHT22;3800;48.922;9.444;2022-08-03T05:43:28;17.50;99.90
7518;DHT22;3800;48.922;9.444;2022-08-03T05:45:56;17.60;99.90
7518;DHT22;3800;48.922;9.444;2022-08-03T05:48:25;17.60;99.90
7518;DHT22;3800;48.922;9.444;2022-08-03T05:50:53;17.70;99.90
7518;DHT22;3800;48.922;9.444;2022-08-03T05:53:22;17.80;99.90
7518;DHT22;3800;48.922;9.444;2022-08-03T05:55:50;17.90;99.90
7518;DHT22;3800;48.922;9.444;2022-08-03T05:58:18;17.90;99.90
7518;DHT22;3800;48.922;9.444;2022-08-03T06:00:47;18.00;99.90
7518;DHT22;3800;48.922;9.444;2022-08-03T06:03:15;18.10;99.90
7518;DHT22;3800;48.922;9.444;2022-08-03T06:05:43;18.20;99.90
7518;DHT22;3800;48.922;9.444;2022-08-03T06:08:12;18.40;99.90
7518;DHT22;3800;48.922;9.444;2022-08-03T06:10:41;18.40;99.90
7518;DHT22;3800;48.922;9.444;2022-08-03T06:13:10;18.60;99.90
7518;DHT22;3800;48.922;9.444;2022-08-03T06:15:38;18.60;99.90
7518;DHT22;3800;48.922;9.444;2022-08-03T06:18:08;18.70;99.90
7518;DHT22;3800;48.922;9.444;2022-08-03T06:20:36;18.90;99.90
7518;DHT22;3800;48.922;9.444;2022-08-03T06:23:05;19.10;99.90
7518;DHT22;3800;48.922;9.444;2022-08-03T06:25:33;19.00;99.90
7518;DHT22;3800;48.922;9.444;2022-08-03T06:28:03;19.30;99.90
7518;DHT22;3800;48.922;9.444;2022-08-03T06:30:31;19.30;99.90
7518;DHT22;3800;48.922;9.444;2022-08-03T06:32:59;19.40;99.90
7518;DHT22;3800;48.922;9.444;2022-08-03T06:35:27;19.60;99.90
7518;DHT22;3800;48.922;9.444;2022-08-03T06:37:56;20.00;99.90
7518;DHT22;3800;48.922;9.444;2022-08-03T06:40:25;19.90;99.90
7518;DHT22;3800;48.922;9.444;2022-08-03T06:42:58;20.20;99.90
7518;DHT22;3800;48.922;9.444;2022-08-03T06:45:25;20.30;99.90
7518;DHT22;3800;48.922;9.444;2022-08-03T06:47:59;20.50;99.90
7518;DHT22;3800;48.922;9.444;2022-08-03T06:50:29;20.70;99.90
7518;DHT22;3800;48.922;9.444;2022-08-03T06:52:57;20.90;99.90
7518;DHT22;3800;48.922;9.444;2022-08-03T06:55:25;21.00;99.90
7518;DHT22;3800;48.922;9.444;2022-08-03T06:57:53;21.20;99.90
7518;DHT22;3800;48.922;9.444;2022-08-03T07:00:22;21.40;99.90
7518;DHT22;3800;48.922;9.444;2022-08-03T07:02:51;21.70;99.90
7518;DHT22;3800;48.922;9.444;2022-08-03T07:05:19;21.70;99.90
7518;DHT22;3800;48.922;9.444;2022-08-03T07:07:48;21.80;99.90
7518;DHT22;3800;48.922;9.444;2022-08-03T07:10:17;21.90;99.90
7518;DHT22;3800;48.922;9.444;2022-08-03T07:12:45;22.10;99.90
7518;DHT22;3800;48.922;9.444;2022-08-03T07:15:13;22.40;99.90
7518;DHT22;3800;48.922;9.444;2022-08-03T07:17:41;22.60;99.90
7518;DHT22;3800;48.922;9.444;2022-08-03T07:20:10;22.80;99.90
7518;DHT22;3800;48.922;9.444;2022-08-03T07:22:38;23.00;99.90
7518;DHT22;3800;48.922;9.444;2022-08-03T07:25:06;23.20;99.90
7518;DHT22;3800;48.922;9.444;2022-08-03T07:27:35;23.40;99.90
7518;DHT22;3800;48.922;9.444;2022-08-03T07:30:05;23.90;99.90
7518;DHT22;3800;48.922;9.444;2022-08-03T07:32:34;24.10;99.90
7518;DHT22;3800;48.922;9.444;2022-08-03T07:35:04;24.00;99.90
7518;DHT22;3800;48.922;9.444;2022-08-03T07:37:33;24.20;99.90
7518;DHT22;3800;48.922;9.444;2022-08-03T07:40:02;24.30;99.90
7518;DHT22;3800;48.922;9.444;2022-08-03T07:42:30;24.50;99.90
7518;DHT22;3800;48.922;9.444;2022-08-03T07:44:58;24.60;99.90
7518;DHT22;3800;48.922;9.444;2022-08-03T07:47:27;24.80;99.90
7518;DHT22;3800;48.922;9.444;2022-08-03T07:49:56;25.00;99.90
7518;DHT22;3800;48.922;9.444;2022-08-03T07:52:24;25.10;99.90
7518;DHT22;3800;48.922;9.444;2022-08-03T07:54:58;25.30;99.90
7518;DHT22;3800;48.922;9.444;2022-08-03T07:57:27;25.40;99.90
7518;DHT22;3800;48.922;9.444;2022-08-03T07:59:55;25.50;99.90
7518;DHT22;3800;48.922;9.444;2022-08-03T08:02:24;25.70;99.90
7518;DHT22;3800;48.922;9.444;2022-08-03T08:04:53;26.10;99.90
7518;DHT22;3800;48.922;9.444;2022-08-03T08:07:22;26.10;99.90
7518;DHT22;3800;48.922;9.444;2022-08-03T08:09:51;26.40;99.90
7518;DHT22;3800;48.922;9.444;2022-08-03T08:12:19;26.60;99.90
7518;DHT22;3800;48.922;9.444;2022-08-03T08:14:47;26.80;99.90
7518;DHT22;3800;48.922;9.444;2022-08-03T08:17:16;27.00;99.90
7518;DHT22;3800;48.922;9.444;2022-08-03T08:19:46;27.30;99.90
7518;DHT22;3800;48.922;9.444;2022-08-03T08:22:14;27.40;99.60
7518;DHT22;3800;48.922;9.444;2022-08-03T08:24:42;27.50;99.00
7518;DHT22;3800;48.922;9.444;2022-08-03T08:27:10;27.70;99.60
7518;DHT22;3800;48.922;9.444;2022-08-03T08:29:40;28.10;98.70
7518;DHT22;3800;48.922;9.444;2022-08-03T08:32:08;28.10;98.40
7518;DHT22;3800;48.922;9.444;2022-08-03T08:34:37;28.30;98.40
7518;DHT22;3800;48.922;9.444;2022-08-03T08:37:05;28.50;98.20
7518;DHT22;3800;48.922;9.444;2022-08-03T08:39:34;28.60;97.80
7518;DHT22;3800;48.922;9.444;2022-08-03T08:42:04;28.80;96.90
7518;DHT22;3800;48.922;9.444;2022-08-03T08:44:32;28.80;96.80
7518;DHT22;3800;48.922;9.444;2022-08-03T08:47:01;28.90;97.20
7518;DHT22;3800;48.922;9.444;2022-08-03T08:49:29;29.20;95.90
7518;DHT22;3800;48.922;9.444;2022-08-03T08:51:57;29.20;95.90
7518;DHT22;3800;48.922;9.444;2022-08-03T08:54:26;29.30;96.30
7518;DHT22;3800;48.922;9.444;2022-08-03T08:56:55;29.60;95.40
7518;DHT22;3800;48.922;9.444;2022-08-03T08:59:23;29.50;95.40
7518;DHT22;3800;48.922;9.444;2022-08-03T09:01:55;29.70;95.80
7518;DHT22;3800;48.922;9.444;2022-08-03T09:04:20;29.80;95.30
7518;DHT22;3800;48.922;9.444;2022-08-03T09:06:48;29.90;93.70
7518;DHT22;3800;48.922;9.444;2022-08-03T09:09:16;30.10;94.50
7518;DHT22;3800;48.922;9.444;2022-08-03T09:11:46;30.20;95.10
7518;DHT22;3800;48.922;9.444;2022-08-03T09:14:13;30.30;93.50
7518;DHT22;3800;48.922;9.444;2022-08-03T09:17:01;30.40;93.50
7518;DHT22;3800;48.922;9.444;2022-08-03T09:19:30;30.40;91.50
7518;DHT22;3800;48.922;9.444;2022-08-03T09:22:06;30.50;91.90
7518;DHT22;3800;48.922;9.444;2022-08-03T09:24:34;30.50;92.30
7518;DHT22;3800;48.922;9.444;2022-08-03T09:27:04;30.50;92.10
7518;DHT22;3800;48.922;9.444;2022-08-03T09:29:32;30.50;92.20
7518;DHT22;3800;48.922;9.444;2022-08-03T09:32:01;30.50;92.80
7518;DHT22;3800;48.922;9.444;2022-08-03T09:34:29;30.50;92.70
7518;DHT22;3800;48.922;9.444;2022-08-03T09:36:57;30.60;92.60
7518;DHT22;3800;48.922;9.444;2022-08-03T09:39:26;30.70;92.80
7518;DHT22;3800;48.922;9.444;2022-08-03T09:42:04;30.70;91.70
7518;DHT22;3800;48.922;9.444;2022-08-03T09:44:36;30.80;91.90
7518;DHT22;3800;48.922;9.444;2022-08-03T09:47:04;30.80;91.40
7518;DHT22;3800;48.922;9.444;2022-08-03T09:49:33;30.80;91.10
7518;DHT22;3800;48.922;9.444;2022-08-03T09:52:10;30.90;92.00
7518;DHT22;3800;48.922;9.444;2022-08-03T09:54:30;31.10;92.90
7518;DHT22;3800;48.922;9.444;2022-08-03T09:56:58;31.20;92.30
7518;DHT22;3800;48.922;9.444;2022-08-03T09:59:27;31.30;92.10
7518;DHT22;3800;48.922;9.444;2022-08-03T10:01:55;31.30;91.50
7518;DHT22;3800;48.922;9.444;2022-08-03T10:04:22;31.20;91.00
7518;DHT22;3800;48.922;9.444;2022-08-03T10:07:02;31.30;91.60
7518;DHT22;3800;48.922;9.444;2022-08-03T10:09:30;31.30;91.50
7518;DHT22;3800;48.922;9.444;2022-08-03T10:12:05;31.30;92.20
7518;DHT22;3800;48.922;9.444;2022-08-03T10:14:35;31.40;92.10
7518;DHT22;3800;48.922;9.444;2022-08-03T10:17:03;31.50;92.40
7518;DHT22;3800;48.922;9.444;2022-08-03T10:19:32;31.70;91.70
7518;DHT22;3800;48.922;9.444;2022-08-03T10:22:02;31.80;90.80
7518;DHT22;3800;48.922;9.444;2022-08-03T10:24:32;31.80;90.90
7518;DHT22;3800;48.922;9.444;2022-08-03T10:27:01;31.80;90.50
7518;DHT22;3800;48.922;9.444;2022-08-03T10:29:30;31.90;91.40
7518;DHT22;3800;48.922;9.444;2022-08-03T10:31:58;31.90;90.90
7518;DHT22;3800;48.922;9.444;2022-08-03T10:34:27;31.80;90.50
7518;DHT22;3800;48.922;9.444;2022-08-03T10:36:57;31.70;90.60
7518;DHT22;3800;48.922;9.444;2022-08-03T10:39:26;31.70;90.90
7518;DHT22;3800;48.922;9.444;2022-08-03T10:41:54;31.80;91.30
7518;DHT22;3800;48.922;9.444;2022-08-03T10:44:23;31.90;91.10
7518;DHT22;3800;48.922;9.444;2022-08-03T10:46:51;31.90;91.10
7518;DHT22;3800;48.922;9.444;2022-08-03T10:49:19;32.00;90.10
7518;DHT22;3800;48.922;9.444;2022-08-03T10:51:47;32.00;90.40
7518;DHT22;3800;48.922;9.444;2022-08-03T10:54:37;32.20;91.30
7518;DHT22;3800;48.922;9.444;2022-08-03T11:00:09;32.10;90.20
7518;DHT22;3800;48.922;9.444;2022-08-03T11:05:30;32.20;91.30
7518;DHT22;3800;48.922;9.444;2022-08-03T11:10:43;32.40;90.40
7518;DHT22;3800;48.922;9.444;2022-08-03T11:13:14;32.20;87.40
7518;DHT22;3800;48.922;9.444;2022-08-03T11:15:44;32.00;87.30
7518;DHT22;3800;48.922;9.444;2022-08-03T11:18:15;31.70;88.40
7518;DHT22;3800;48.922;9.444;2022-08-03T11:20:45;31.70;88.40
7518;DHT22;3800;48.922;9.444;2022-08-03T11:23:13;31.70;89.80
7518;DHT22;3800;48.922;9.444;2022-08-03T11:28:27;31.90;87.50
7518;DHT22;3800;48.922;9.444;2022-08-03T11:30:56;32.00;90.20
7518;DHT22;3800;48.922;9.444;2022-08-03T11:33:28;32.10;88.50
7518;DHT22;3800;48.922;9.444;2022-08-03T11:35:57;32.20;88.70
7518;DHT22;3800;48.922;9.444;2022-08-03T11:38:26;32.30;89.10
7518;DHT22;3800;48.922;9.444;2022-08-03T11:40:54;32.40;90.10
7518;DHT22;3800;48.922;9.444;2022-08-03T11:43:42;32.40;87.50
7518;DHT22;3800;48.922;9.444;2022-08-03T11:46:11;32.50;87.50
7518;DHT22;3800;48.922;9.444;2022-08-03T11:48:40;32.60;88.30
7518;DHT22;3800;48.922;9.444;2022-08-03T11:51:20;32.50;85.60
7518;DHT22;3800;48.922;9.444;2022-08-03T11:53:52;32.30;85.90
7518;DHT22;3800;48.922;9.444;2022-08-03T11:56:21;32.30;85.80
7518;DHT22;3800;48.922;9.444;2022-08-03T11:58:50;32.40;85.10
7518;DHT22;3800;48.922;9.444;2022-08-03T12:01:18;32.20;84.20
7518;DHT22;3800;48.922;9.444;2022-08-03T12:03:46;32.10;84.70
7518;DHT22;3800;48.922;9.444;2022-08-03T12:06:14;32.20;84.30
7518;DHT22;3800;48.922;9.444;2022-08-03T12:08:42;32.20;85.50
7518;DHT22;3800;48.922;9.444;2022-08-03T12:11:11;32.10;84.60
7518;DHT22;3800;48.922;9.444;2022-08-03T12:13:48;32.10;85.50
7518;DHT22;3800;48.922;9.444;2022-08-03T12:16:17;32.10;86.00
7518;DHT22;3800;48.922;9.444;2022-08-03T12:18:45;32.10;86.90
7518;DHT22;3800;48.922;9.444;2022-08-03T12:21:12;32.20;86.40
7518;DHT22;3800;48.922;9.444;2022-08-03T12:23:41;32.20;86.90
7518;DHT22;3800;48.922;9.444;2022-08-03T12:26:09;32.20;87.00
7518;DHT22;3800;48.922;9.444;2022-08-03T12:28:38;32.20;87.60
7518;DHT22;3800;48.922;9.444;2022-08-03T12:31:06;32.30;87.90
7518;DHT22;3800;48.922;9.444;2022-08-03T12:33:58;32.40;87.50
7518;DHT22;3800;48.922;9.444;2022-08-03T12:36:26;32.70;86.30
7518;DHT22;3800;48.922;9.444;2022-08-03T12:38:55;32.90;86.00
7518;DHT22;3800;48.922;9.444;2022-08-03T12:41:38;33.00;85.10
7518;DHT22;3800;48.922;9.444;2022-08-03T12:44:07;33.10;85.70
7518;DHT22;3800;48.922;9.444;2022-08-03T12:46:36;33.00;85.10
7518;DHT22;3800;48.922;9.444;2022-08-03T12:49:08;33.10;85.70
7518;DHT22;3800;48.922;9.444;2022-08-03T12:51:57;33.10;84.80
7518;DHT22;3800;48.922;9.444;2022-08-03T12:54:26;33.10;84.80
7518;DHT22;3800;48.922;9.444;2022-08-03T12:57:04;33.20;85.90
7518;DHT22;3800;48.922;9.444;2022-08-03T12:59:34;33.20;85.70
7518;DHT22;3800;48.922;9.444;2022-08-03T13:02:02;33.40;84.10
7518;DHT22;3800;48.922;9.444;2022-08-03T13:04:31;33.40;83.80
7518;DHT22;3800;48.922;9.444;2022-08-03T13:07:01;33.40;83.00
7518;DHT22;3800;48.922;9.444;2022-08-03T13:09:29;33.40;83.70
7518;DHT22;3800;48.922;9.444;2022-08-03T13:12:04;33.30;83.70
7518;DHT22;3800;48.922;9.444;2022-08-03T13:14:36;33.20;83.70
7518;DHT22;3800;48.922;9.444;2022-08-03T13:17:04;33.10;83.60
7518;DHT22;3800;48.922;9.444;2022-08-03T13:19:33;33.00;83.00
7518;DHT22;3800;48.922;9.444;2022-08-03T13:22:11;33.20;84.00
7518;DHT22;3800;48.922;9.444;2022-08-03T13:24:47;33.20;84.10
7518;DHT22;3800;48.922;9.444;2022-08-03T13:27:14;33.20;83.20
7518;DHT22;3800;48.922;9.444;2022-08-03T13:29:44;33.20;83.20
7518;DHT22;3800;48.922;9.444;2022-08-03T13:32:12;33.30;83.50
7518;DHT22;3800;48.922;9.444;2022-08-03T13:34:41;33.20;82.70
7518;DHT22;3800;48.922;9.444;2022-08-03T13:37:09;33.20;81.30
7518;DHT22;3800;48.922;9.444;2022-08-03T13:39:38;33.10;82.20
7518;DHT22;3800;48.922;9.444;2022-08-03T13:42:07;33.30;82.70
7518;DHT22;3800;48.922;9.444;2022-08-03T13:44:35;33.30;82.80
7518;DHT22;3800;48.922;9.444;2022-08-03T13:47:04;33.30;82.50
7518;DHT22;3800;48.922;9.444;2022-08-03T13:49:32;33.30;83.70
7518;DHT22;3800;48.922;9.444;2022-08-03T13:52:01;33.40;82.80
7518;DHT22;3800;48.922;9.444;2022-08-03T13:54:30;33.50;84.10
7518;DHT22;3800;48.922;9.444;2022-08-03T13:56:58;33.60;82.70
7518;DHT22;3800;48.922;9.444;2022-08-03T13:59:26;33.70;82.50
7518;DHT22;3800;48.922;9.444;2022-08-03T14:01:54;33.70;82.70
7518;DHT22;3800;48.922;9.444;2022-08-03T14:04:23;33.70;80.80
7518;DHT22;3800;48.922;9.444;2022-08-03T14:06:52;33.60;81.40
7518;DHT22;3800;48.922;9.444;2022-08-03T14:09:20;33.60;81.40
7518;DHT22;3800;48.922;9.444;2022-08-03T14:11:49;33.60;82.90
7518;DHT22;3800;48.922;9.444;2022-08-03T14:14:17;33.60;80.80
7518;DHT22;3800;48.922;9.444;2022-08-03T14:16:45;33.60;81.10
7518;DHT22;3800;48.922;9.444;2022-08-03T14:19:14;33.60;80.50
7518;DHT22;3800;48.922;9.444;2022-08-03T14:21:43;33.50;80.80
7518;DHT22;3800;48.922;9.444;2022-08-03T14:24:11;33.50;80.60
7518;DHT22;3800;48.922;9.444;2022-08-03T14:26:39;33.50;81.10
7518;DHT22;3800;48.922;9.444;2022-08-03T14:29:08;33.60;81.10
7518;DHT22;3800;48.922;9.444;2022-08-03T14:31:37;33.50;81.00
7518;DHT22;3800;48.922;9.444;2022-08-03T14:34:05;33.60;82.40
7518;DHT22;3800;48.922;9.444;2022-08-03T14:36:33;33.60;81.30
7518;DHT22;3800;48.922;9.444;2022-08-03T14:39:02;33.70;80.20
7518;DHT22;3800;48.922;9.444;2022-08-03T14:41:30;33.60;80.10
7518;DHT22;3800;48.922;9.444;2022-08-03T14:43:58;33.60;80.40
7518;DHT22;3800;48.922;9.444;2022-08-03T14:46:27;33.70;80.80
7518;DHT22;3800;48.922;9.444;2022-08-03T14:48:55;33.70;80.30
7518;DHT22;3800;48.922;9.444;2022-08-03T14:51:23;33.70;79.80
7518;DHT22;3800;48.922;9.444;2022-08-03T14:53:51;33.70;79.70
7518;DHT22;3800;48.922;9.444;2022-08-03T14:56:20;33.70;79.70
7518;DHT22;3800;48.922;9.444;2022-08-03T14:58:48;33.80;81.30
7518;DHT22;3800;48.922;9.444;2022-08-03T15:01:16;33.80;82.90
7518;DHT22;3800;48.922;9.444;2022-08-03T15:03:44;33.80;80.80
7518;DHT22;3800;48.922;9.444;2022-08-03T15:06:13;33.80;81.30
7518;DHT22;3800;48.922;9.444;2022-08-03T15:08:41;33.80;81.90
7518;DHT22;3800;48.922;9.444;2022-08-03T15:11:09;33.80;79.60
7518;DHT22;3800;48.922;9.444;2022-08-03T15:13:38;33.70;81.10
7518;DHT22;3800;48.922;9.444;2022-08-03T15:16:06;33.70;80.70
7518;DHT22;3800;48.922;9.444;2022-08-03T15:18:34;33.70;79.90
7518;DHT22;3800;48.922;9.444;2022-08-03T15:21:02;33.70;79.60
7518;DHT22;3800;48.922;9.444;2022-08-03T15:23:31;33.60;80.10
7518;DHT22;3800;48.922;9.444;2022-08-03T15:26:00;33.70;79.60
7518;DHT22;3800;48.922;9.444;2022-08-03T15:28:28;33.60;79.50
7518;DHT22;3800;48.922;9.444;2022-08-03T15:30:56;33.60;78.80
7518;DHT22;3800;48.922;9.444;2022-08-03T15:33:25;33.50;80.00
7518;DHT22;3800;48.922;9.444;2022-08-03T15:35:53;33.50;81.40
7518;DHT22;3800;48.922;9.444;2022-08-03T15:38:21;33.50;79.80
7518;DHT22;3800;48.922;9.444;2022-08-03T15:40:50;33.60;79.40
7518;DHT22;3800;48.922;9.444;2022-08-03T15:43:20;33.50;80.80
7518;DHT22;3800;48.922;9.444;2022-08-03T15:45:48;33.40;80.70
7518;DHT22;3800;48.922;9.444;2022-08-03T15:48:16;33.40;81.00
7518;DHT22;3800;48.922;9.444;2022-08-03T15:50:44;33.40;81.20
7518;DHT22;3800;48.922;9.444;2022-08-03T15:53:13;33.40;81.10
7518;DHT22;3800;48.922;9.444;2022-08-03T15:55:41;33.40;80.10
7518;DHT22;3800;48.922;9.444;2022-08-03T15:58:09;33.40;81.60
7518;DHT22;3800;48.922;9.444;2022-08-03T16:00:39;33.30;78.30
7518;DHT22;3800;48.922;9.444;2022-08-03T16:03:07;33.30;77.10
7518;DHT22;3800;48.922;9.444;2022-08-03T16:05:36;33.10;77.70
7518;DHT22;3800;48.922;9.444;2022-08-03T16:08:05;33.00;79.20
7518;DHT22;3800;48.922;9.444;2022-08-03T16:10:33;33.00;78.30
7518;DHT22;3800;48.922;9.444;2022-08-03T16:13:01;32.90;79.10
7518;DHT22;3800;48.922;9.444;2022-08-03T16:15:31;32.80;79.50
7518;DHT22;3800;48.922;9.444;2022-08-03T16:17:59;32.80;79.50
7518;DHT22;3800;48.922;9.444;2022-08-03T16:20:28;32.80;78.70
7518;DHT22;3800;48.922;9.444;2022-08-03T16:22:56;32.80;80.10
7518;DHT22;3800;48.922;9.444;2022-08-03T16:25:24;32.80;78.80
7518;DHT22;3800;48.922;9.444;2022-08-03T16:27:53;32.70;80.90
7518;DHT22;3800;48.922;9.444;2022-08-03T16:30:21;32.70;79.50